CZ-0002 weather

Hospital Heliport
Tábor, South Bohemian Region, Czechia

Public forecast

Using degrees Celsius for public forecast. Weather courtesy of forecast.io.

METAR (pilot weather report)

Closest report is Čáslav Air Base, 42.3 nm (78.4 km) NE. Retrieved 2019/09/17 05:00 UTC (33 minutes ago):

LKCV 170500Z 27005KT 9999 OVC044 11/10 Q1017 NOSIG RMK BLU BLU

TAF (pilot weather forecast)

Closest forecast is Čáslav Air Base, 42.3 nm (78.4 km) NE. Retrieved 2019/09/17 00:00 UTC (6 hours ago):

TAF LKCV 162300Z 1700/1800 32004KT 5000 RA BKN007 BKN020 BECMG 1707/1709 32008KT BKN025 TEMPO 1711/1800 33016G30KT